Devonshire, New Jersey
Current Conditions -  °F | °C
As of 8:54 PM on Friday 19 Dec 2014 (Local Time) from KACY Reporting Station
Clear Clear  
Wind Chill: -5°   Ceiling: Unl
Heat Index: -2°   Visibility: 10mi
Dew Point: -6°   Wind: 6mph
Humidity: 72%   Direction: 340°NNW
Pressure: 30.18"   Gusts: NA
Location:  39.5436°N, 74.5919°W
Report Text: KACY 200154Z 34005KT 10SM CLR M02/M06 A3018 RMK AO2 SLP222 T10171061
Loading
Personal Weather Stations






























Interactive Weather Map New forecast layout! Learn more

10-Day Weather Forecast

Advertisements
Track Severe Weather on mobile